Time;durP1;ratioP1;P1;durP2;ratioP2;P2;SDS_P1;SDS_P2;PMS_P1;PMS_P2;Temp;Humidity;BMP_temperature;BMP_pressure;BME280_temperature;BME280_humidity;BME280_pressure;Samples;Min_cycle;Max_cycle;Signal;HPM_P1;HPM_P2
2023/08/17 00:00:44;;;;;;;;;;;;;;;27.59;52.95;100836.22;6194205;23;19908;-82
2023/08/17 00:03:35;;;;;;;;;;;;;;;27.61;53.19;100842.19;6194709;23;19908;-83
2023/08/17 00:06:25;;;;;;;;;;;;;;;27.62;54.33;100840.19;6221798;23;19908;-83
2023/08/17 00:09:15;;;;;;;;;;;;;;;26.50;59.54;100838.84;6199621;23;19908;-86
2023/08/17 00:12:07;;;;;;;;;;;;;;;26.68;57.97;100844.94;6196590;23;19912;-82
2023/08/17 00:14:59;;;;;;;;;;;;;;;27.02;56.69;100842.00;6195605;23;19908;-83
2023/08/17 00:17:51;;;;;;;;;;;;;;;26.78;58.41;100840.38;6215782;23;19912;-80
2023/08/17 00:20:44;;;;;;;;;;;;;;;26.56;59.52;100831.56;6195155;23;19907;-82
2023/08/17 00:23:36;;;;;;;;;;;;;;;26.76;58.14;100831.66;6182160;23;19908;-79
2023/08/17 00:26:28;;;;;;;;;;;;;;;27.10;56.64;100831.53;6173046;23;19908;-80
2023/08/17 00:29:18;;;;;;;;;;;;;;;27.26;56.32;100839.22;6172321;23;19908;-80
2023/08/17 00:32:10;;;;;;;;;;;;;;;27.34;55.87;100837.88;6173136;23;19912;-80
2023/08/17 00:35:02;;;;;;;;;;;;;;;27.37;56.16;100829.44;6172061;23;19912;-79
2023/08/17 00:37:54;;;;;;;;;;;;;;;27.42;55.99;100825.38;6193817;23;19912;-80
2023/08/17 00:40:43;;;;;;;;;;;;;;;27.43;56.04;100827.72;6172213;23;20611;-81
2023/08/17 00:43:35;;;;;;;;;;;;;;;27.41;56.41;100821.00;6188976;23;19908;-83
2023/08/17 00:46:27;;;;;;;;;;;;;;;27.43;56.38;100822.13;6194024;23;19908;-82
2023/08/17 00:49:17;;;;;;;;;;;;;;;27.39;57.19;100817.81;6180906;23;19908;-83
2023/08/17 00:52:10;;;;;;;;;;;;;;;27.35;58.22;100817.09;6181031;23;19912;-82
2023/08/17 00:55:03;;;;;;;;;;;;;;;27.33;59.52;100825.91;6204187;23;19908;-80
2023/08/17 00:57:55;;;;;;;;;;;;;;;27.19;60.46;100813.00;6171862;23;19908;-80
2023/08/17 01:00:49;;;;;;;;;;;;;;;26.21;64.36;100813.31;6201965;23;19912;-80
2023/08/17 01:03:41;;;;;;;;;;;;;;;25.54;67.87;100811.34;6197854;23;19908;-82
2023/08/17 01:06:33;;;;;;;;;;;;;;;26.01;65.94;100817.19;6178334;23;19908;-82
2023/08/17 01:09:26;;;;;;;;;;;;;;;26.24;64.82;100815.31;6177730;23;19908;-83
2023/08/17 01:12:26;;;;;;;;;;;;;;;26.26;65.05;100815.66;6178053;23;19916;-81
2023/08/17 01:15:21;;;;;;;;;;;;;;;26.45;62.04;100816.19;6197648;23;19908;-79
2023/08/17 01:18:20;;;;;;;;;;;;;;;26.60;60.94;100821.16;6236946;23;20358;-82
2023/08/17 01:21:12;;;;;;;;;;;;;;;26.65;60.41;100823.47;6196529;23;19920;-80
2023/08/17 01:24:05;;;;;;;;;;;;;;;26.58;60.90;100834.72;6195470;23;19908;-82
2023/08/17 01:26:57;;;;;;;;;;;;;;;26.71;59.76;100846.09;6183338;23;20492;-83
2023/08/17 01:29:49;;;;;;;;;;;;;;;26.57;59.95;100840.72;6186428;23;19908;-82
2023/08/17 01:32:47;;;;;;;;;;;;;;;26.60;60.05;100842.66;6182057;23;20279;-82
2023/08/17 01:35:39;;;;;;;;;;;;;;;26.59;60.78;100844.66;6172273;23;19908;-80
2023/08/17 01:38:32;;;;;;;;;;;;;;;26.66;60.16;100838.19;6172047;23;19908;-80
2023/08/17 01:41:26;;;;;;;;;;;;;;;26.51;60.78;100834.84;6179857;23;19916;-80
2023/08/17 01:44:18;;;;;;;;;;;;;;;26.57;61.22;100837.91;6198351;23;19912;-78
2023/08/17 01:47:10;;;;;;;;;;;;;;;26.36;62.74;100834.22;6177285;23;19908;-80
2023/08/17 01:50:02;;;;;;;;;;;;;;;26.56;61.38;100830.78;6179386;23;19908;-80
2023/08/17 01:52:54;;;;;;;;;;;;;;;26.81;59.97;100839.56;6178995;23;20327;-81
2023/08/17 01:55:44;;;;;;;;;;;;;;;26.71;60.17;100832.16;6174590;23;19908;-85
2023/08/17 01:58:36;;;;;;;;;;;;;;;26.74;60.16;100842.44;6180095;23;19908;-86
2023/08/17 02:01:25;;;;;;;;;;;;;;;26.82;59.99;100833.53;6199305;23;19908;-84
2023/08/17 02:04:17;;;;;;;;;;;;;;;26.87;60.09;100828.72;6155020;23;19912;-83
2023/08/17 02:07:09;;;;;;;;;;;;;;;26.71;61.08;100832.16;6173190;23;19908;-82
2023/08/17 02:10:02;;;;;;;;;;;;;;;26.45;63.17;100830.94;6174103;23;19908;-81
2023/08/17 02:12:55;;;;;;;;;;;;;;;26.51;63.01;100834.03;6195208;23;20243;-81
2023/08/17 02:15:48;;;;;;;;;;;;;;;26.53;62.99;100826.03;6195372;23;19912;-81
2023/08/17 02:18:40;;;;;;;;;;;;;;;26.61;62.37;100821.94;6174011;23;19908;-81
2023/08/17 02:21:30;;;;;;;;;;;;;;;26.52;62.94;100819.66;6174038;23;19908;-82
2023/08/17 02:24:22;;;;;;;;;;;;;;;26.51;63.15;100817.31;6174195;23;19908;-82
2023/08/17 02:27:14;;;;;;;;;;;;;;;26.39;62.97;100802.72;6174254;23;19912;-81
2023/08/17 02:30:06;;;;;;;;;;;;;;;26.45;63.43;100808.63;6173931;23;19908;-82
2023/08/17 02:32:59;;;;;;;;;;;;;;;26.49;63.06;100805.78;6195471;23;20328;-81
2023/08/17 02:35:51;;;;;;;;;;;;;;;26.30;63.76;100805.25;6173844;23;19908;-80
2023/08/17 02:38:40;;;;;;;;;;;;;;;26.07;65.92;100805.13;6174198;23;19916;-82
2023/08/17 02:41:30;;;;;;;;;;;;;;;26.24;64.83;100803.34;6195745;23;19912;-81
2023/08/17 02:44:22;;;;;;;;;;;;;;;26.18;65.09;100805.78;6194101;23;19916;-81
2023/08/17 02:47:11;;;;;;;;;;;;;;;26.24;65.22;100809.72;6197889;23;19911;-85
2023/08/17 02:50:03;;;;;;;;;;;;;;;26.22;65.34;100803.75;6171491;23;20298;-82
2023/08/17 02:52:55;;;;;;;;;;;;;;;26.11;65.43;100805.13;6211891;23;19912;-81
2023/08/17 02:55:47;;;;;;;;;;;;;;;26.17;65.40;100792.25;6232573;23;19908;-81
2023/08/17 02:58:40;;;;;;;;;;;;;;;26.21;65.22;100798.59;6191259;23;19912;-81
2023/08/17 03:01:32;;;;;;;;;;;;;;;26.25;65.15;100800.16;6191727;23;19908;-82
2023/08/17 03:04:24;;;;;;;;;;;;;;;26.36;63.72;100800.75;6231146;23;20328;-81
2023/08/17 03:07:16;;;;;;;;;;;;;;;26.32;64.33;100791.66;6172215;23;19912;-79
2023/08/17 03:10:08;;;;;;;;;;;;;;;26.32;64.78;100793.66;6214070;23;20320;-79
2023/08/17 03:13:00;;;;;;;;;;;;;;;26.17;64.85;100793.06;6193519;23;20543;-81
2023/08/17 03:15:50;;;;;;;;;;;;;;;26.06;65.90;100800.75;6176714;23;19908;-81
2023/08/17 03:18:42;;;;;;;;;;;;;;;26.12;65.06;100789.94;6195635;23;20328;-84
2023/08/17 03:21:32;;;;;;;;;;;;;;;26.12;64.91;100789.94;6171957;23;19908;-81
2023/08/17 03:24:24;;;;;;;;;;;;;;;26.09;65.05;100786.00;6192921;23;19912;-81
2023/08/17 03:27:16;;;;;;;;;;;;;;;26.11;64.74;100780.78;6192148;23;19912;-78
2023/08/17 03:30:08;;;;;;;;;;;;;;;26.08;64.63;100778.84;6171436;23;19908;-78
2023/08/17 03:32:57;;;;;;;;;;;;;;;26.08;64.56;100778.06;6171267;23;19916;-81
2023/08/17 03:35:46;;;;;;;;;;;;;;;26.12;64.13;100773.22;6212857;23;19908;-80
2023/08/17 03:38:38;;;;;;;;;;;;;;;26.12;63.89;100773.22;6171067;23;19908;-80
2023/08/17 03:41:31;;;;;;;;;;;;;;;26.30;63.19;100771.78;6174992;23;19908;-82
2023/08/17 03:44:23;;;;;;;;;;;;;;;26.52;62.51;100780.59;6201905;23;19908;-82
2023/08/17 03:47:15;;;;;;;;;;;;;;;26.57;62.03;100779.34;6180408;23;19908;-81
2023/08/17 03:50:07;;;;;;;;;;;;;;;26.62;61.64;100782.44;6179686;23;19912;-81
2023/08/17 03:53:01;;;;;;;;;;;;;;;26.49;61.94;100786.25;6200871;23;19912;-83
2023/08/17 03:55:53;;;;;;;;;;;;;;;26.35;62.27;100781.69;6182097;23;20371;-82
2023/08/17 03:58:45;;;;;;;;;;;;;;;26.24;62.74;100787.41;6184789;23;19908;-82
2023/08/17 04:01:32;;;;;;;;;;;;;;;26.23;62.92;100788.63;6182108;23;20251;-82
2023/08/17 04:17:30;;;;;;;;;;;;;;;25.67;63.83;100783.75;6193013;23;20178;-81
2023/08/17 04:20:22;;;;;;;;;;;;;;;25.51;64.81;100784.31;6183295;23;19916;-83
2023/08/17 04:23:12;;;;;;;;;;;;;;;25.41;64.99;100782.44;6173369;23;20268;-84
2023/08/17 04:26:02;;;;;;;;;;;;;;;25.53;65.27;100787.47;6152366;23;19920;-78
2023/08/17 04:28:54;;;;;;;;;;;;;;;25.64;64.17;100787.38;6153619;23;19916;-83
2023/08/17 04:31:46;;;;;;;;;;;;;;;25.64;64.09;100777.03;6176109;23;19912;-82
2023/08/17 04:34:36;;;;;;;;;;;;;;;25.62;63.65;100773.06;6152465;23;19916;-82
2023/08/17 04:37:25;;;;;;;;;;;;;;;25.57;64.03;100779.09;6154785;23;19916;-82
2023/08/17 04:40:15;;;;;;;;;;;;;;;25.49;64.11;100775.59;6173731;23;20348;-82
2023/08/17 04:43:07;;;;;;;;;;;;;;;25.40;65.00;100790.00;6193109;23;19916;-83
2023/08/17 04:45:59;;;;;;;;;;;;;;;25.45;64.70;100789.53;6193422;23;19912;-81
2023/08/17 04:48:52;;;;;;;;;;;;;;;25.46;64.58;100787.56;6193525;23;19912;-82
2023/08/17 04:51:44;;;;;;;;;;;;;;;25.50;64.43;100797.44;6151720;23;19916;-80
2023/08/17 04:54:36;;;;;;;;;;;;;;;25.30;64.70;100807.59;6152136;23;20248;-80
2023/08/17 04:57:27;;;;;;;;;;;;;;;25.30;64.64;100807.59;6208941;23;19920;-80
2023/08/17 05:00:19;;;;;;;;;;;;;;;25.43;64.21;100811.47;6202428;23;19920;-82
2023/08/17 05:03:12;;;;;;;;;;;;;;;25.50;64.09;100811.38;6179360;23;19917;-83
2023/08/17 05:06:04;;;;;;;;;;;;;;;25.59;63.60;100812.91;6154142;23;19912;-84
2023/08/17 05:08:57;;;;;;;;;;;;;;;25.57;63.54;100807.75;6196534;23;19913;-84
2023/08/17 05:11:46;;;;;;;;;;;;;;;25.61;63.59;100810.50;6155093;23;19912;-82
2023/08/17 05:14:38;;;;;;;;;;;;;;;25.75;63.52;100811.09;6172171;23;20639;-82
2023/08/17 05:17:28;;;;;;;;;;;;;;;25.89;62.99;100821.31;6148354;23;19912;-83
2023/08/17 05:20:20;;;;;;;;;;;;;;;25.98;62.56;100810.44;6126164;23;19916;-84
2023/08/17 05:23:09;;;;;;;;;;;;;;;26.08;62.72;100812.28;6127233;23;19917;-83
2023/08/17 05:26:01;;;;;;;;;;;;;;;26.20;61.63;100811.75;6168535;23;20255;-83
2023/08/17 05:28:51;;;;;;;;;;;;;;;25.58;64.25;100822.47;6127207;23;19912;-83
2023/08/17 05:31:43;;;;;;;;;;;;;;;25.16;67.33;100830.03;6126688;23;20260;-83
2023/08/17 05:34:35;;;;;;;;;;;;;;;25.35;66.52;100829.44;6146550;23;19921;-82
2023/08/17 05:37:27;;;;;;;;;;;;;;;25.71;64.40;100831.88;6146228;23;19913;-82
2023/08/17 05:40:19;;;;;;;;;;;;;;;25.98;63.19;100824.38;6168056;23;19912;-82
2023/08/17 05:43:08;;;;;;;;;;;;;;;26.25;61.86;100827.25;6125552;23;20352;-82
2023/08/17 05:46:03;;;;;;;;;;;;;;;26.52;60.83;100824.44;6166531;23;19913;-82
2023/08/17 05:48:53;;;;;;;;;;;;;;;26.69;60.20;100831.75;6167577;23;19913;-80
2023/08/17 05:51:45;;;;;;;;;;;;;;;26.81;59.50;100831.19;6145914;23;20264;-81
2023/08/17 05:54:37;;;;;;;;;;;;;;;26.91;59.59;100829.47;6146493;23;20251;-81
2023/08/17 05:57:29;;;;;;;;;;;;;;;27.17;58.64;100825.81;6146238;23;19912;-83
2023/08/17 06:00:16;;;;;;;;;;;;;;;26.60;59.53;100828.72;6149562;23;19912;-83
2023/08/17 06:03:08;;;;;;;;;;;;;;;26.61;59.66;100819.16;6149088;23;19917;-84
2023/08/17 06:06:00;;;;;;;;;;;;;;;27.57;56.96;100832.28;6149255;23;19917;-82
2023/08/17 06:08:52;;;;;;;;;;;;;;;27.54;56.36;100833.13;6144763;23;19913;-83
2023/08/17 06:11:42;;;;;;;;;;;;;;;27.63;55.36;100848.09;6166679;23;20336;-83
2023/08/17 06:14:34;;;;;;;;;;;;;;;27.50;56.43;100849.19;6166255;23;19917;-85
2023/08/17 06:17:26;;;;;;;;;;;;;;;26.72;59.08;100844.84;6164905;23;20248;-82
2023/08/17 06:20:18;;;;;;;;;;;;;;;26.34;60.94;100850.59;6165088;23;19912;-82
2023/08/17 06:23:10;;;;;;;;;;;;;;;26.07;61.66;100862.88;6166837;23;20344;-80
2023/08/17 06:26:03;;;;;;;;;;;;;;;25.71;60.83;100856.94;6170742;23;19912;-84
2023/08/17 06:28:55;;;;;;;;;;;;;;;26.12;60.59;100857.63;6185168;23;19912;-84
2023/08/17 06:31:47;;;;;;;;;;;;;;;25.89;61.53;100860.31;6173532;23;20252;-85
2023/08/17 06:34:39;;;;;;;;;;;;;;;26.44;60.57;100850.88;6169537;23;19913;-84
2023/08/17 06:37:29;;;;;;;;;;;;;;;26.67;59.48;100854.50;6166514;23;19917;-84
2023/08/17 06:40:18;;;;;;;;;;;;;;;27.66;56.86;100868.84;6165735;23;20339;-83
2023/08/17 06:43:10;;;;;;;;;;;;;;;28.17;53.15;100873.03;6164811;23;19916;-85
2023/08/17 06:46:00;;;;;;;;;;;;;;;28.57;52.88;100865.34;6165208;23;19912;-83
2023/08/17 06:48:52;;;;;;;;;;;;;;;28.58;52.87;100866.94;6165438;23;19917;-83
2023/08/17 06:51:41;;;;;;;;;;;;;;;28.91;51.84;100856.56;6163426;23;19917;-83
2023/08/17 06:54:32;;;;;;;;;;;;;;;31.38;45.68;100870.97;6165954;23;19913;-80
2023/08/17 06:57:24;;;;;;;;;;;;;;;32.33;43.41;100876.41;6162776;23;19913;-82
2023/08/17 07:00:16;;;;;;;;;;;;;;;31.93;44.61;100868.63;6164264;23;19912;-82
2023/08/17 07:03:08;;;;;;;;;;;;;;;33.09;41.72;100866.06;6163120;23;19916;-82
2023/08/17 07:06:00;;;;;;;;;;;;;;;35.31;37.36;100875.97;6162985;23;19913;-82
2023/08/17 07:08:52;;;;;;;;;;;;;;;34.37;39.19;100865.28;6162892;23;19913;-79
2023/08/17 07:11:44;;;;;;;;;;;;;;;33.08;40.86;100858.06;6165377;23;19913;-83
2023/08/17 07:14:34;;;;;;;;;;;;;;;28.45;52.38;100861.19;6169738;23;20336;-83
2023/08/17 07:17:26;;;;;;;;;;;;;;;29.84;49.53;100868.97;6170447;23;19916;-82
2023/08/17 07:20:18;;;;;;;;;;;;;;;33.02;41.82;100871.22;6193820;23;19920;-81
2023/08/17 07:23:10;;;;;;;;;;;;;;;33.39;39.75;100880.53;6194758;23;19920;-83
2023/08/17 07:25:57;;;;;;;;;;;;;;;33.77;39.53;100886.56;6193305;23;19912;-83
2023/08/17 07:28:49;;;;;;;;;;;;;;;30.76;45.45;100878.25;6194509;23;19912;-83
2023/08/17 07:31:41;;;;;;;;;;;;;;;29.78;48.13;100882.72;6194592;23;19912;-81
2023/08/17 07:34:31;;;;;;;;;;;;;;;29.89;47.82;100891.66;6173079;23;20275;-83
2023/08/17 07:37:23;;;;;;;;;;;;;;;30.71;46.16;100886.44;6193914;23;19916;-81
2023/08/17 07:40:15;;;;;;;;;;;;;;;29.93;47.81;100897.16;6194681;23;19916;-81
2023/08/17 07:43:07;;;;;;;;;;;;;;;30.58;46.48;100886.44;6187103;23;19920;-81
2023/08/17 07:45:57;;;;;;;;;;;;;;;30.52;46.19;100886.22;6193491;23;20339;-80
2023/08/17 07:48:46;;;;;;;;;;;;;;;30.49;45.83;100889.13;6192913;23;19916;-83
2023/08/17 07:51:38;;;;;;;;;;;;;;;30.77;45.67;100881.84;6194663;23;19915;-80
2023/08/17 07:54:25;;;;;;;;;;;;;;;30.88;45.57;100882.28;6193296;23;20332;-82
2023/08/17 07:57:17;;;;;;;;;;;;;;;31.25;44.56;100877.84;6172595;23;20508;-85
2023/08/17 08:00:09;;;;;;;;;;;;;;;31.25;44.66;100880.66;6172200;23;19916;-82
2023/08/17 08:02:58;;;;;;;;;;;;;;;31.28;44.91;100876.97;6186608;23;19916;-82
2023/08/17 08:05:50;;;;;;;;;;;;;;;31.43;44.83;100889.28;6172308;23;19912;-81
2023/08/17 08:08:43;;;;;;;;;;;;;;;31.60;44.45;100887.13;6194374;23;19913;-81
2023/08/17 08:11:35;;;;;;;;;;;;;;;30.21;47.80;100889.97;6194143;23;19916;-81
2023/08/17 08:14:27;;;;;;;;;;;;;;;29.47;49.79;100892.78;6193719;23;19913;-82
2023/08/17 08:17:19;;;;;;;;;;;;;;;29.12;51.11;100881.25;6195116;23;20539;-82
2023/08/17 08:20:11;;;;;;;;;;;;;;;28.86;51.79;100876.69;6195078;23;19913;-78
2023/08/17 08:23:03;;;;;;;;;;;;;;;28.78;52.60;100876.09;6173166;23;19920;-79
2023/08/17 08:25:53;;;;;;;;;;;;;;;28.75;51.91;100870.56;6194077;23;19916;-81
2023/08/17 08:28:44;;;;;;;;;;;;;;;28.67;51.71;100869.91;6175059;23;19917;-81
2023/08/17 08:31:34;;;;;;;;;;;;;;;28.74;51.51;100869.00;6199568;23;19916;-81
2023/08/17 08:34:23;;;;;;;;;;;;;;;28.85;50.50;100864.69;6198342;23;19912;-82
2023/08/17 08:37:15;;;;;;;;;;;;;;;28.78;51.63;100869.69;6176751;23;19912;-82
2023/08/17 08:40:12;;;;;;;;;;;;;;;28.74;51.60;100864.19;6197446;23;19913;-81
2023/08/17 08:43:05;;;;;;;;;;;;;;;28.86;51.14;100859.88;6197890;23;19913;-81
2023/08/17 08:45:54;;;;;;;;;;;;;;;28.75;51.75;100868.53;6197290;23;19916;-81
2023/08/17 08:48:48;;;;;;;;;;;;;;;28.89;50.49;100871.03;6197324;23;19916;-82
2023/08/17 08:51:41;;;;;;;;;;;;;;;28.96;51.47;100869.25;6177469;23;19916;-81
2023/08/17 08:54:33;;;;;;;;;;;;;;;29.00;51.10;100870.75;6199147;23;19935;-81
2023/08/17 08:57:25;;;;;;;;;;;;;;;28.87;50.86;100862.25;6176123;23;19916;-81
2023/08/17 09:00:13;;;;;;;;;;;;;;;28.85;51.64;100864.69;6198386;23;19916;-82
2023/08/17 09:03:06;;;;;;;;;;;;;;;28.95;51.48;100859.28;6198355;23;19912;-82
2023/08/17 09:06:00;;;;;;;;;;;;;;;29.04;50.61;100871.44;6197700;23;19916;-80
2023/08/17 09:08:50;;;;;;;;;;;;;;;29.13;50.43;100865.22;6197631;23;19916;-80
2023/08/17 09:11:41;;;;;;;;;;;;;;;29.24;50.21;100863.75;6197180;23;19912;-80
2023/08/17 09:14:29;;;;;;;;;;;;;;;29.19;50.33;100860.69;6197923;23;19912;-80
2023/08/17 09:17:23;;;;;;;;;;;;;;;29.16;50.42;100858.72;6197210;23;19916;-81
2023/08/17 09:20:33;;;;;;;;;;;;;;;29.41;49.97;100858.91;6175935;23;19912;-79
2023/08/17 09:23:25;;;;;;;;;;;;;;;29.35;49.97;100852.28;6197345;23;20263;-80
2023/08/17 09:26:17;;;;;;;;;;;;;;;29.50;48.58;100859.09;6176634;23;19916;-79
2023/08/17 09:29:22;;;;;;;;;;;;;;;29.40;49.66;100857.34;6175066;23;19912;-80
2023/08/17 09:32:16;;;;;;;;;;;;;;;29.33;49.74;100852.72;6197869;23;19912;-80
2023/08/17 09:35:09;;;;;;;;;;;;;;;29.25;48.85;100850.50;6197619;23;19912;-80
2023/08/17 09:38:01;;;;;;;;;;;;;;;29.49;48.73;100839.91;6175717;23;19912;-81
2023/08/17 09:40:50;;;;;;;;;;;;;;;29.38;49.57;100837.38;6205057;23;19912;-82
2023/08/17 09:43:37;;;;;;;;;;;;;;;39.12;30.44;100850.88;6178947;23;19916;-82
2023/08/17 09:46:27;;;;;;;;;;;;;;;36.38;32.77;100846.34;6176104;23;19920;-81
2023/08/17 09:49:17;;;;;;;;;;;;;;;34.06;37.17;100840.09;6175060;23;19925;-81
2023/08/17 09:52:09;;;;;;;;;;;;;;;32.12;41.91;100832.97;6176059;23;19912;-82
2023/08/17 09:55:03;;;;;;;;;;;;;;;31.39;43.25;100830.38;6174703;23;19912;-82
2023/08/17 09:57:51;;;;;;;;;;;;;;;31.19;44.09;100826.31;6197977;23;19913;-81
2023/08/17 10:00:45;;;;;;;;;;;;;;;30.70;45.54;100821.06;6175928;23;20251;-82
2023/08/17 10:03:41;;;;;;;;;;;;;;;30.46;45.89;100817.84;6175564;23;19924;-82
2023/08/17 10:06:29;;;;;;;;;;;;;;;30.32;45.06;100820.28;6197513;23;20336;-82
2023/08/17 10:09:22;;;;;;;;;;;;;;;30.71;43.51;100822.66;6176424;23;19912;-82
2023/08/17 10:12:11;;;;;;;;;;;;;;;30.46;45.06;100815.03;6197590;23;19917;-81
2023/08/17 10:15:06;;;;;;;;;;;;;;;30.41;44.89;100815.56;6195845;23;19913;-81
2023/08/17 10:18:00;;;;;;;;;;;;;;;30.25;45.83;100820.50;6174257;23;20352;-81
2023/08/17 10:20:49;;;;;;;;;;;;;;;30.15;45.96;100819.59;6174833;23;19912;-81
2023/08/17 10:23:39;;;;;;;;;;;;;;;30.15;46.15;100823.19;6197914;23;19917;-81
2023/08/17 10:26:32;;;;;;;;;;;;;;;30.00;46.92;100824.06;6176474;23;19912;-81
2023/08/17 10:29:24;;;;;;;;;;;;;;;29.93;46.87;100818.63;6195556;23;19912;-81
2023/08/17 10:32:15;;;;;;;;;;;;;;;30.11;46.35;100814.09;6195067;23;19916;-82
2023/08/17 10:35:08;;;;;;;;;;;;;;;30.14;46.24;100815.19;6196176;23;19916;-83
2023/08/17 10:37:58;;;;;;;;;;;;;;;29.95;47.20;100819.00;6195571;23;20340;-82
2023/08/17 10:41:04;;;;;;;;;;;;;;;29.92;47.41;100817.09;6174475;23;19913;-81
2023/08/17 10:43:57;;;;;;;;;;;;;;;29.83;47.00;100814.09;6174028;23;19916;-82
2023/08/17 10:46:49;;;;;;;;;;;;;;;29.88;46.98;100813.53;6174473;23;19913;-82
2023/08/17 10:49:44;;;;;;;;;;;;;;;29.92;47.01;100819.91;6195343;23;19912;-82
2023/08/17 10:52:37;;;;;;;;;;;;;;;29.86;47.23;100807.63;6195675;23;19916;-81
2023/08/17 10:55:39;;;;;;;;;;;;;;;29.88;47.31;100810.75;6173993;23;19916;-81
2023/08/17 10:58:32;;;;;;;;;;;;;;;30.01;46.43;100803.19;6195600;23;19916;-81
2023/08/17 11:01:30;;;;;;;;;;;;;;;30.08;46.31;100800.16;6172868;23;19912;-81
2023/08/17 11:04:22;;;;;;;;;;;;;;;30.16;44.78;100793.09;6173638;23;19916;-81
2023/08/17 11:07:14;;;;;;;;;;;;;;;30.20;45.69;100801.41;6173515;23;19916;-80
2023/08/17 11:10:12;;;;;;;;;;;;;;;30.22;43.63;100791.31;6172942;23;19912;-82
2023/08/17 11:13:04;;;;;;;;;;;;;;;30.25;43.18;100793.22;6194185;23;19916;-81
2023/08/17 11:15:54;;;;;;;;;;;;;;;30.27;43.82;100778.75;6171997;23;19916;-81
2023/08/17 11:18:43;;;;;;;;;;;;;;;30.19;44.45;100775.38;6193449;23;19916;-81
2023/08/17 11:21:31;;;;;;;;;;;;;;;30.30;44.23;100775.81;6168161;23;19912;-82
2023/08/17 11:24:23;;;;;;;;;;;;;;;30.26;45.50;100774.38;6193591;23;20228;-79
2023/08/17 11:27:16;;;;;;;;;;;;;;;30.27;44.60;100765.50;6171450;23;19912;-80
2023/08/17 11:30:08;;;;;;;;;;;;;;;30.62;44.18;100760.78;6173276;23;19916;-81
2023/08/17 11:33:00;;;;;;;;;;;;;;;30.48;44.00;100753.59;6198024;23;19916;-81
2023/08/17 11:35:49;;;;;;;;;;;;;;;30.54;44.66;100760.22;6176036;23;19912;-82
2023/08/17 11:38:41;;;;;;;;;;;;;;;30.75;44.11;100755.91;6197757;23;19912;-81
2023/08/17 11:41:31;;;;;;;;;;;;;;;30.61;44.40;100755.63;6197128;23;19938;-81
2023/08/17 11:44:23;;;;;;;;;;;;;;;30.93;43.11;100756.09;6174634;23;19916;-81
2023/08/17 11:47:12;;;;;;;;;;;;;;;31.33;42.36;100747.09;6174499;23;19912;-81
2023/08/17 11:50:04;;;;;;;;;;;;;;;31.24;42.86;100747.78;6175174;23;19913;-81
2023/08/17 11:52:54;;;;;;;;;;;;;;;31.20;42.18;100741.53;6175100;23;19913;-81
2023/08/17 11:55:43;;;;;;;;;;;;;;;31.08;43.09;100733.16;6174057;23;19912;-80
2023/08/17 11:58:42;;;;;;;;;;;;;;;30.92;44.11;100737.69;6174827;23;20260;-80
2023/08/17 12:01:32;;;;;;;;;;;;;;;30.58;44.64;100735.63;6195422;23;19912;-83
2023/08/17 12:04:26;;;;;;;;;;;;;;;30.33;46.39;100732.81;6173253;23;19917;-83
2023/08/17 12:07:15;;;;;;;;;;;;;;;30.14;46.84;100728.22;6172492;23;19916;-82
2023/08/17 12:10:02;;;;;;;;;;;;;;;30.17;46.98;100722.50;6172231;23;19916;-82
2023/08/17 12:12:50;;;;;;;;;;;;;;;29.97;47.61;100718.38;6195396;23;19916;-82
2023/08/17 12:15:35;;;;;;;;;;;;;;;30.48;45.72;100705.88;6193270;23;19912;-80
2023/08/17 12:18:28;;;;;;;;;;;;;;;31.01;43.35;100700.44;6174902;23;19916;-79
2023/08/17 12:21:18;;;;;;;;;;;;;;;31.16;44.05;100701.53;6196935;23;19916;-83
2023/08/17 12:24:08;;;;;;;;;;;;;;;31.28;43.83;100697.88;6175226;23;19920;-83
2023/08/17 12:26:58;;;;;;;;;;;;;;;31.37;43.61;100695.13;6197530;23;19912;-80
2023/08/17 12:29:48;;;;;;;;;;;;;;;31.03;44.76;100688.78;6174823;23;19912;-79
2023/08/17 12:32:41;;;;;;;;;;;;;;;31.09;44.12;100689.78;6196663;23;19912;-79
2023/08/17 12:35:30;;;;;;;;;;;;;;;30.74;45.55;100686.16;6196723;23;20279;-80
2023/08/17 12:38:22;;;;;;;;;;;;;;;31.10;44.87;100680.09;6174406;23;20336;-80
2023/08/17 12:41:14;;;;;;;;;;;;;;;30.74;45.79;100669.31;6197392;23;19912;-79
2023/08/17 12:44:06;;;;;;;;;;;;;;;30.72;45.56;100666.19;6194745;23;19920;-78
2023/08/17 12:46:58;;;;;;;;;;;;;;;30.82;45.90;100676.25;6196995;23;20244;-79
2023/08/17 12:49:50;;;;;;;;;;;;;;;31.12;44.18;100663.56;6196722;23;19912;-79
2023/08/17 12:52:42;;;;;;;;;;;;;;;31.60;41.98;100657.31;6196827;23;19916;-80
2023/08/17 12:55:31;;;;;;;;;;;;;;;31.87;42.15;100664.31;6177471;23;19916;-80
2023/08/17 12:58:23;;;;;;;;;;;;;;;31.80;41.25;100654.13;6201364;23;19912;-80
2023/08/17 13:01:15;;;;;;;;;;;;;;;32.09;40.73;100659.41;6175133;23;20339;-79
2023/08/17 13:04:07;;;;;;;;;;;;;;;31.86;41.96;100660.72;6196801;23;19924;-79
2023/08/17 13:06:59;;;;;;;;;;;;;;;31.93;41.75;100657.63;6196598;23;19920;-79
2023/08/17 13:09:54;;;;;;;;;;;;;;;31.66;42.78;100660.31;6192572;23;19916;-80
2023/08/17 13:12:46;;;;;;;;;;;;;;;31.75;42.10;100660.34;6173806;23;19912;-79
2023/08/17 13:15:38;;;;;;;;;;;;;;;31.26;44.37;100661.00;6195766;23;20336;-80
2023/08/17 13:18:28;;;;;;;;;;;;;;;31.65;41.55;100655.94;6196238;23;19912;-82
2023/08/17 13:21:20;;;;;;;;;;;;;;;31.17;44.64;100658.16;6173523;23;19915;-79
2023/08/17 13:24:09;;;;;;;;;;;;;;;31.23;43.71;100650.69;6174084;23;19928;-78
2023/08/17 13:27:01;;;;;;;;;;;;;;;31.28;44.19;100647.28;6174083;23;20489;-80
2023/08/17 13:29:50;;;;;;;;;;;;;;;31.31;43.54;100635.13;6194430;23;19912;-79
2023/08/17 13:32:42;;;;;;;;;;;;;;;31.25;43.34;100631.34;6195698;23;19916;-79
2023/08/17 13:35:32;;;;;;;;;;;;;;;31.29;43.50;100631.22;6195861;23;20240;-80
2023/08/17 13:38:24;;;;;;;;;;;;;;;31.44;43.46;100638.63;6173640;23;19912;-80
2023/08/17 13:41:14;;;;;;;;;;;;;;;31.62;42.04;100637.19;6173445;23;19913;-79
2023/08/17 13:44:06;;;;;;;;;;;;;;;31.48;42.69;100649.75;6193844;23;19916;-79
2023/08/17 13:46:58;;;;;;;;;;;;;;;31.78;41.80;100651.00;6194763;23;19920;-79
2023/08/17 13:49:48;;;;;;;;;;;;;;;31.59;42.54;100647.34;6173550;23;20335;-79
2023/08/17 13:52:40;;;;;;;;;;;;;;;31.15;44.46;100654.22;6194787;23;20263;-80
2023/08/17 13:55:29;;;;;;;;;;;;;;;31.38;43.34;100657.34;6173598;23;20340;-79
2023/08/17 13:58:19;;;;;;;;;;;;;;;31.28;43.59;100664.16;6195402;23;19916;-79
2023/08/17 14:01:11;;;;;;;;;;;;;;;30.89;45.06;100664.75;6174458;23;19916;-79
2023/08/17 14:04:03;;;;;;;;;;;;;;;30.90;44.70;100658.69;6196539;23;19916;-79
2023/08/17 14:06:52;;;;;;;;;;;;;;;30.94;43.85;100666.97;6196107;23;19912;-77
2023/08/17 14:09:41;;;;;;;;;;;;;;;31.05;44.74;100669.44;6195354;23;19912;-79
2023/08/17 14:12:33;;;;;;;;;;;;;;;30.86;45.33;100674.91;6174221;23;19912;-79
2023/08/17 14:15:18;;;;;;;;;;;;;;;30.79;45.17;100665.94;6195791;23;19912;-80
2023/08/17 14:18:10;;;;;;;;;;;;;;;30.94;43.77;100669.78;6196244;23;20279;-79
2023/08/17 14:21:02;;;;;;;;;;;;;;;31.15;43.21;100674.66;6196835;23;19912;-81
2023/08/17 14:23:54;;;;;;;;;;;;;;;31.06;44.10;100677.41;6175492;23;19920;-79
2023/08/17 14:26:46;;;;;;;;;;;;;;;31.07;43.93;100681.00;6198932;23;19912;-79
2023/08/17 14:29:38;;;;;;;;;;;;;;;30.93;43.56;100682.28;6198350;23;19912;-81
2023/08/17 14:32:30;;;;;;;;;;;;;;;31.02;43.93;100673.97;6174503;23;19916;-78
2023/08/17 14:35:22;;;;;;;;;;;;;;;30.86;44.29;100665.69;6193460;23;20252;-77
2023/08/17 14:38:14;;;;;;;;;;;;;;;30.63;45.50;100669.69;6173389;23;20152;-79
2023/08/17 14:41:06;;;;;;;;;;;;;;;30.69;44.80;100667.88;6193715;23;19912;-79
2023/08/17 14:43:58;;;;;;;;;;;;;;;30.64;46.15;100671.25;6173124;23;20375;-78
2023/08/17 14:46:47;;;;;;;;;;;;;;;30.43;46.69;100671.94;6192832;23;19912;-76
2023/08/17 14:49:39;;;;;;;;;;;;;;;30.56;45.33;100686.78;6193946;23;19912;-77
2023/08/17 14:52:31;;;;;;;;;;;;;;;30.66;45.12;100679.25;6173133;23;19913;-78